Time;durP1;ratioP1;P1;durP2;ratioP2;P2;SDS_P1;SDS_P2;PMS_P1;PMS_P2;Temp;Humidity;BMP_temperature;BMP_pressure;BME280_temperature;BME280_humidity;BME280_pressure;Samples;Min_cycle;Max_cycle;Signal;HPM_P1;HPM_P2
2022/04/30 00:00:42;;;;;;;114.55;103.75;;;9.70;66.30;;;;;;4996983;28;20050;-74
2022/04/30 00:03:10;;;;;;;116.28;105.28;;;9.70;66.50;;;;;;5014381;28;20214;-75
2022/04/30 00:05:37;;;;;;;116.03;105.35;;;9.70;66.90;;;;;;4980548;28;20133;-74
2022/04/30 00:08:06;;;;;;;115.40;104.55;;;9.60;67.00;;;;;;4997060;28;20050;-75
2022/04/30 00:10:37;;;;;;;116.53;105.60;;;9.60;67.20;;;;;;5014655;28;20050;-75
2022/04/30 00:13:06;;;;;;;116.38;105.32;;;9.60;67.30;;;;;;4996926;28;20042;-75
2022/04/30 00:15:34;;;;;;;115.70;104.78;;;9.60;67.60;;;;;;4996669;28;20051;-75
2022/04/30 00:18:02;;;;;;;117.30;106.22;;;9.50;67.50;;;;;;4996407;28;20469;-74
2022/04/30 00:20:29;;;;;;;116.03;105.30;;;9.50;67.60;;;;;;4996735;28;20915;-74
2022/04/30 00:22:56;;;;;;;116.97;106.00;;;9.50;67.70;;;;;;4996888;28;20046;-75
2022/04/30 00:25:24;;;;;;;117.10;106.18;;;9.40;67.90;;;;;;4997053;28;20061;-74
2022/04/30 00:27:51;;;;;;;116.85;105.63;;;9.40;68.20;;;;;;4995898;28;21137;-75
2022/04/30 00:30:19;;;;;;;115.50;104.80;;;9.40;68.30;;;;;;4979010;28;20047;-75
2022/04/30 00:32:48;;;;;;;115.57;104.47;;;9.40;68.00;;;;;;4996392;28;20137;-75
2022/04/30 00:35:15;;;;;;;116.43;105.43;;;9.30;68.10;;;;;;4996816;28;20134;-75
2022/04/30 00:37:42;;;;;;;115.43;104.63;;;9.30;68.10;;;;;;4996456;28;20508;-75
2022/04/30 00:40:10;;;;;;;116.70;105.70;;;9.30;68.20;;;;;;4996647;28;20991;-75
2022/04/30 00:42:39;;;;;;;118.30;107.00;;;9.30;68.40;;;;;;4996121;28;20065;-74
2022/04/30 00:45:08;;;;;;;116.10;104.95;;;9.30;68.60;;;;;;4996431;28;20063;-74
2022/04/30 00:47:35;;;;;;;115.72;104.63;;;9.20;68.60;;;;;;5013922;28;20056;-75
2022/04/30 00:50:02;;;;;;;116.85;105.55;;;9.20;68.60;;;;;;4996205;28;20050;-75
2022/04/30 00:52:30;;;;;;;115.93;104.85;;;9.20;68.60;;;;;;4995803;28;20519;-75
2022/04/30 00:55:01;;;;;;;116.63;105.32;;;9.20;68.70;;;;;;4996266;28;20054;-75
2022/04/30 00:57:32;;;;;;;114.82;103.93;;;9.20;69.00;;;;;;4996001;28;20057;-75
2022/04/30 01:00:03;;;;;;;114.45;103.65;;;9.10;69.00;;;;;;4996400;28;20570;-75
2022/04/30 01:02:34;;;;;;;115.72;104.80;;;9.10;69.20;;;;;;4980004;28;20104;-75
2022/04/30 01:05:20;;;;;;;116.20;105.00;;;9.10;69.10;;;;;;5013794;28;20054;-75
2022/04/30 01:07:48;;;;;;;115.32;104.40;;;9.10;69.20;;;;;;5012061;28;20054;-75
2022/04/30 01:10:15;;;;;;;115.40;104.47;;;9.10;69.60;;;;;;4995883;28;20049;-75
2022/04/30 01:12:43;;;;;;;115.97;104.95;;;9.10;69.50;;;;;;4995663;28;20056;-75
2022/04/30 01:15:12;;;;;;;115.60;104.63;;;9.00;69.40;;;;;;4996311;28;20472;-75
2022/04/30 01:17:40;;;;;;;116.00;104.80;;;9.00;69.80;;;;;;5012479;28;20141;-74
2022/04/30 01:20:08;;;;;;;116.35;105.03;;;9.00;70.00;;;;;;5013101;28;20109;-75
2022/04/30 01:22:41;;;;;;;116.05;104.85;;;9.00;70.30;;;;;;4996004;28;20076;-75
2022/04/30 01:25:12;;;;;;;115.38;104.25;;;8.90;70.30;;;;;;4996077;28;20050;-74
2022/04/30 01:27:41;;;;;;;115.78;104.75;;;8.90;70.50;;;;;;5013280;28;20531;-74
2022/04/30 01:30:11;;;;;;;115.57;104.57;;;8.90;70.70;;;;;;4995941;28;20054;-74
2022/04/30 01:38:03;;;;;;;116.07;105.07;;;8.80;70.90;;;;;;4995573;28;20116;-74
2022/04/30 01:40:32;;;;;;;117.35;106.22;;;8.80;70.90;;;;;;4978875;28;20046;-74
2022/04/30 01:43:01;;;;;;;116.10;104.72;;;8.80;71.10;;;;;;5013279;28;20644;-75
2022/04/30 01:45:28;;;;;;;116.03;104.68;;;8.80;71.20;;;;;;4995583;28;20053;-74
2022/04/30 01:47:57;;;;;;;116.78;105.75;;;8.80;71.30;;;;;;4995280;28;20042;-75
2022/04/30 01:50:25;;;;;;;115.15;104.05;;;8.70;71.40;;;;;;4995806;28;20062;-74
2022/04/30 01:52:52;;;;;;;115.63;104.32;;;8.80;71.50;;;;;;4979068;28;20054;-74
2022/04/30 01:55:19;;;;;;;116.38;105.18;;;8.70;71.70;;;;;;4995359;28;20074;-74
2022/04/30 01:57:48;;;;;;;116.50;105.18;;;8.70;71.80;;;;;;4994763;28;20088;-74
2022/04/30 02:00:20;;;;;;;115.95;104.75;;;8.70;71.70;;;;;;5012975;28;20954;-75
2022/04/30 02:02:50;;;;;;;116.35;105.15;;;8.70;71.80;;;;;;4995261;28;20057;-75
2022/04/30 02:05:19;;;;;;;115.25;104.28;;;8.70;72.00;;;;;;4995656;28;20534;-75
2022/04/30 02:07:50;;;;;;;117.07;106.07;;;8.60;72.00;;;;;;4995011;28;20137;-74
2022/04/30 02:10:19;;;;;;;116.13;104.95;;;8.60;72.20;;;;;;4995488;28;20110;-74
2022/04/30 02:12:48;;;;;;;116.13;105.22;;;8.60;72.00;;;;;;4994794;28;20065;-75
2022/04/30 02:15:15;;;;;;;115.82;104.63;;;8.60;72.10;;;;;;4995110;28;20054;-74
2022/04/30 02:17:43;;;;;;;115.95;104.80;;;8.60;72.40;;;;;;4994793;28;20057;-75
2022/04/30 02:20:22;;;;;;;118.43;107.03;;;8.50;72.90;;;;;;4995104;28;21028;-74
2022/04/30 02:22:50;;;;;;;116.00;104.72;;;8.50;72.60;;;;;;4996855;28;20532;-75
2022/04/30 02:25:18;;;;;;;116.28;105.28;;;8.50;72.70;;;;;;4995335;28;20081;-74
2022/04/30 02:27:49;;;;;;;116.00;104.72;;;8.50;72.80;;;;;;4994835;28;20066;-74
2022/04/30 02:30:18;;;;;;;117.10;105.78;;;8.50;73.10;;;;;;4978953;28;20129;-75
2022/04/30 02:32:48;;;;;;;117.43;106.05;;;8.40;73.00;;;;;;4994292;28;20133;-74
2022/04/30 02:35:16;;;;;;;119.05;107.28;;;8.40;73.40;;;;;;4994740;28;20109;-75
2022/04/30 02:37:45;;;;;;;117.03;105.93;;;8.40;73.50;;;;;;4994562;28;20141;-74
2022/04/30 02:40:15;;;;;;;116.05;104.85;;;8.40;73.80;;;;;;5012482;28;20500;-75
2022/04/30 02:42:43;;;;;;;116.60;105.30;;;8.30;73.90;;;;;;4994658;28;20125;-74
2022/04/30 02:45:12;;;;;;;116.32;105.13;;;8.20;74.40;;;;;;5012079;28;20062;-74
2022/04/30 02:47:41;;;;;;;116.63;105.47;;;8.20;74.70;;;;;;4994598;28;20053;-74
2022/04/30 02:50:09;;;;;;;117.25;105.68;;;8.10;75.00;;;;;;4994560;28;20950;-75
2022/04/30 02:52:37;;;;;;;117.80;106.28;;;8.10;75.30;;;;;;4996215;28;20129;-75
2022/04/30 02:55:05;;;;;;;116.95;105.60;;;8.10;75.40;;;;;;5015778;28;20097;-74
2022/04/30 02:57:39;;;;;;;116.57;105.30;;;8.10;75.60;;;;;;4981157;28;20046;-74
2022/04/30 03:00:07;;;;;;;117.32;105.93;;;8.10;76.30;;;;;;4998096;28;20483;-75
2022/04/30 03:03:04;;;;;;;116.85;105.68;;;8.10;76.00;;;;;;4962048;28;20563;-74
2022/04/30 03:05:32;;;;;;;118.30;105.53;;;8.00;76.10;;;;;;4997580;28;20475;-75
2022/04/30 03:08:00;;;;;;;117.70;105.80;;;8.00;76.40;;;;;;4998084;28;20539;-76
2022/04/30 03:10:27;;;;;;;118.78;106.10;;;8.00;76.50;;;;;;4997744;28;20050;-74
2022/04/30 03:12:54;;;;;;;116.35;104.57;;;8.00;76.70;;;;;;4981102;28;20046;-74
2022/04/30 03:15:22;;;;;;;116.75;104.80;;;8.00;76.70;;;;;;4997747;28;20054;-74
2022/04/30 03:23:21;;;;;;;116.82;105.22;;;7.90;77.30;;;;;;4981244;28;20043;-74
2022/04/30 03:25:47;;;;;;;118.18;106.22;;;7.90;77.60;;;;;;5015436;28;20596;-74
2022/04/30 03:28:14;;;;;;;119.93;107.55;;;7.90;78.30;;;;;;4997322;28;20054;-75
2022/04/30 03:30:41;;;;;;;117.18;105.80;;;7.80;77.80;;;;;;4997338;28;20134;-74
2022/04/30 03:33:09;;;;;;;117.07;105.70;;;7.80;77.80;;;;;;5014911;28;20125;-75
2022/04/30 03:35:39;;;;;;;118.85;107.38;;;7.70;77.90;;;;;;4997393;28;20161;-74
2022/04/30 03:38:06;;;;;;;117.15;105.68;;;7.70;78.30;;;;;;4996928;28;20057;-76
2022/04/30 03:40:34;;;;;;;117.05;105.68;;;7.70;78.30;;;;;;4996935;28;20053;-75
2022/04/30 03:43:01;;;;;;;117.70;106.28;;;7.60;78.50;;;;;;4996828;28;20050;-74
2022/04/30 03:45:28;;;;;;;117.22;106.00;;;7.60;78.60;;;;;;4996982;28;20053;-74
2022/04/30 03:47:55;;;;;;;117.82;106.35;;;7.60;78.70;;;;;;4996737;28;20532;-74
2022/04/30 03:50:22;;;;;;;118.38;107.05;;;7.70;78.60;;;;;;4996805;28;20089;-74
2022/04/30 03:52:50;;;;;;;117.15;105.75;;;7.60;78.80;;;;;;4996768;28;20832;-74
2022/04/30 03:55:17;;;;;;;116.07;104.60;;;7.60;79.00;;;;;;4996937;28;20050;-75
2022/04/30 03:57:45;;;;;;;118.78;107.43;;;7.60;79.10;;;;;;4996438;28;20084;-74
2022/04/30 04:00:13;;;;;;;117.90;106.43;;;7.60;79.40;;;;;;4997009;28;20046;-75
2022/04/30 04:02:41;;;;;;;118.68;107.13;;;7.60;79.70;;;;;;5014307;28;20054;-74
2022/04/30 04:05:10;;;;;;;117.10;105.57;;;7.60;79.90;;;;;;5014323;28;20165;-75
2022/04/30 04:07:37;;;;;;;118.68;107.35;;;7.60;80.20;;;;;;4996591;28;20109;-74
2022/04/30 04:10:06;;;;;;;117.25;106.07;;;7.50;80.20;;;;;;4996629;28;20058;-74
2022/04/30 04:12:34;;;;;;;116.85;105.28;;;7.60;80.40;;;;;;4996958;28;20140;-74
2022/04/30 04:17:45;;;;;;;115.55;104.35;;;7.60;80.60;;;;;;4996856;28;20166;-74
2022/04/30 04:20:14;;;;;;;118.18;106.50;;;7.60;80.80;;;;;;4998736;28;20626;-75
2022/04/30 04:22:41;;;;;;;117.88;106.38;;;7.60;80.80;;;;;;4996209;28;20054;-74
2022/04/30 04:27:55;;;;;;;116.75;105.28;;;7.50;80.90;;;;;;5013965;28;20530;-74
2022/04/30 04:30:22;;;;;;;117.32;106.07;;;7.60;80.80;;;;;;4996296;28;20488;-74
2022/04/30 04:32:50;;;;;;;118.70;106.75;;;7.50;80.60;;;;;;4996314;28;20047;-75
2022/04/30 04:35:17;;;;;;;116.80;105.50;;;7.60;81.00;;;;;;4995874;28;20065;-75
2022/04/30 04:37:44;;;;;;;118.10;106.20;;;7.60;81.20;;;;;;4995801;28;20145;-75
2022/04/30 04:40:15;;;;;;;117.93;106.45;;;7.60;81.30;;;;;;4996334;28;20512;-75
2022/04/30 04:42:43;;;;;;;117.53;105.97;;;7.60;81.40;;;;;;4996775;28;20522;-74
2022/04/30 04:45:11;;;;;;;117.80;106.43;;;7.60;81.30;;;;;;4996708;28;20054;-74
2022/04/30 04:47:41;;;;;;;117.18;105.68;;;7.60;81.40;;;;;;4995691;28;20050;-74
2022/04/30 04:50:10;;;;;;;116.75;105.55;;;7.70;81.60;;;;;;4996086;28;20042;-74
2022/04/30 04:53:06;;;;;;;114.57;103.65;;;7.60;81.50;;;;;;5016688;28;20059;-75
2022/04/30 04:55:34;;;;;;;116.97;105.60;;;7.70;81.80;;;;;;4990043;28;20054;-75
2022/04/30 04:58:01;;;;;;;117.00;105.80;;;7.60;81.80;;;;;;4992585;28;20055;-74
2022/04/30 05:00:28;;;;;;;115.70;104.70;;;7.60;81.90;;;;;;4992625;28;20043;-74
2022/04/30 05:02:55;;;;;;;117.85;106.38;;;7.60;82.00;;;;;;4992742;28;20053;-74
2022/04/30 05:05:22;;;;;;;117.07;105.47;;;7.60;81.80;;;;;;4992939;28;20062;-74
2022/04/30 05:07:50;;;;;;;116.20;105.10;;;7.60;82.20;;;;;;4992602;28;20055;-74
2022/04/30 05:10:17;;;;;;;118.25;106.90;;;7.60;81.80;;;;;;4992602;28;20047;-74
2022/04/30 05:12:46;;;;;;;116.95;105.68;;;7.70;81.90;;;;;;4993615;28;20059;-74
2022/04/30 05:15:13;;;;;;;118.15;106.65;;;7.70;82.10;;;;;;4992098;28;20186;-74
2022/04/30 05:17:40;;;;;;;116.55;105.47;;;7.70;82.30;;;;;;4993950;28;20095;-75
2022/04/30 05:20:09;;;;;;;116.63;105.32;;;7.70;82.50;;;;;;4992743;28;20065;-74
2022/04/30 05:22:35;;;;;;;115.47;104.40;;;7.70;83.00;;;;;;4992887;28;20053;-74
2022/04/30 05:25:03;;;;;;;118.03;106.57;;;7.70;83.20;;;;;;4976037;28;20051;-75
2022/04/30 05:27:29;;;;;;;116.93;105.60;;;7.70;83.30;;;;;;4975766;28;20054;-74
2022/04/30 05:29:58;;;;;;;117.80;106.72;;;7.70;83.00;;;;;;4992462;28;20051;-74
2022/04/30 05:32:25;;;;;;;116.88;105.35;;;7.80;83.30;;;;;;4992447;28;20531;-74
2022/04/30 05:34:51;;;;;;;118.05;106.10;;;7.80;83.10;;;;;;4976064;28;20059;-75
2022/04/30 05:37:18;;;;;;;118.45;106.93;;;7.80;83.20;;;;;;4992094;28;20055;-74
2022/04/30 05:39:45;;;;;;;116.45;105.05;;;7.80;83.50;;;;;;4992368;28;20391;-74
2022/04/30 05:42:12;;;;;;;117.15;105.68;;;7.80;83.80;;;;;;4992587;28;20046;-74
2022/04/30 05:44:39;;;;;;;118.03;106.43;;;7.90;83.90;;;;;;4992352;28;20047;-75
2022/04/30 05:47:07;;;;;;;118.72;107.20;;;7.90;84.20;;;;;;4992451;28;20090;-74
2022/04/30 05:49:35;;;;;;;118.15;106.95;;;7.90;84.60;;;;;;4991874;28;20105;-74
2022/04/30 05:52:02;;;;;;;118.10;106.38;;;7.90;84.30;;;;;;4992416;28;20055;-74
2022/04/30 05:54:29;;;;;;;117.80;106.38;;;7.90;84.60;;;;;;4991703;28;20058;-74
2022/04/30 05:56:56;;;;;;;117.30;105.82;;;7.90;84.90;;;;;;4975877;28;20058;-74
2022/04/30 05:59:23;;;;;;;117.15;105.78;;;7.90;85.20;;;;;;4992127;28;20057;-74
2022/04/30 06:01:50;;;;;;;117.70;106.30;;;8.00;85.50;;;;;;4992200;28;20161;-74
2022/04/30 06:04:18;;;;;;;116.47;105.25;;;8.00;85.90;;;;;;4992265;28;20061;-74
2022/04/30 06:06:45;;;;;;;116.93;105.80;;;8.00;86.30;;;;;;4992382;28;20485;-74
2022/04/30 06:09:12;;;;;;;116.32;105.13;;;8.00;85.90;;;;;;4991714;28;20061;-74
2022/04/30 06:11:39;;;;;;;117.15;105.55;;;8.00;86.40;;;;;;4991762;28;20137;-74
2022/04/30 06:14:06;;;;;;;117.47;106.10;;;8.00;86.30;;;;;;4975339;28;20059;-74
2022/04/30 06:16:33;;;;;;;117.28;105.88;;;8.10;86.40;;;;;;4992056;28;20054;-74
2022/04/30 06:19:00;;;;;;;115.95;104.63;;;8.10;86.60;;;;;;4991672;28;20141;-74
2022/04/30 06:21:28;;;;;;;117.43;105.95;;;8.10;86.30;;;;;;4991712;28;20571;-74
2022/04/30 06:23:55;;;;;;;116.40;104.95;;;8.10;86.80;;;;;;4993028;28;20449;-74
2022/04/30 06:26:22;;;;;;;117.05;105.80;;;8.20;86.10;;;;;;4993085;28;20535;-74
2022/04/30 06:28:49;;;;;;;117.45;106.00;;;8.20;86.40;;;;;;4995023;28;20142;-74
2022/04/30 06:31:16;;;;;;;118.00;106.50;;;8.20;87.40;;;;;;4995142;28;20063;-75
2022/04/30 06:33:43;;;;;;;115.30;104.28;;;8.30;87.50;;;;;;4995199;28;20074;-74
2022/04/30 06:36:10;;;;;;;117.35;105.82;;;8.30;86.80;;;;;;4994872;28;20061;-75
2022/04/30 06:38:38;;;;;;;116.10;104.88;;;8.40;87.20;;;;;;4994689;28;21005;-75
2022/04/30 06:41:05;;;;;;;117.00;105.40;;;8.40;87.90;;;;;;4994764;28;20830;-74
2022/04/30 06:43:32;;;;;;;117.07;105.75;;;8.40;87.70;;;;;;4995095;28;20051;-74
2022/04/30 06:45:59;;;;;;;117.00;105.60;;;8.50;88.40;;;;;;4995033;28;20446;-74
2022/04/30 06:48:26;;;;;;;118.32;107.00;;;8.50;88.30;;;;;;4995866;28;20054;-74
2022/04/30 06:50:53;;;;;;;117.10;105.55;;;8.50;88.00;;;;;;4995175;28;20054;-75
2022/04/30 06:58:54;;;;;;;115.40;104.35;;;8.70;88.60;;;;;;4995879;28;20051;-75
2022/04/30 07:01:38;;;;;;;116.43;105.03;;;8.70;88.60;;;;;;4978245;28;20117;-74
2022/04/30 07:04:06;;;;;;;114.90;103.70;;;8.70;88.70;;;;;;4994784;28;20082;-74
2022/04/30 07:06:34;;;;;;;115.82;104.47;;;8.80;88.20;;;;;;4994686;28;20505;-74
2022/04/30 07:09:02;;;;;;;115.55;104.07;;;8.80;88.10;;;;;;4994687;28;20060;-74
2022/04/30 07:11:31;;;;;;;117.78;105.97;;;8.80;89.00;;;;;;4978332;28;20054;-74
2022/04/30 07:13:58;;;;;;;116.28;105.15;;;8.90;88.60;;;;;;4978059;28;20047;-74
2022/04/30 07:16:25;;;;;;;117.28;105.82;;;8.90;88.80;;;;;;4977963;28;20061;-74
2022/04/30 07:18:52;;;;;;;115.72;104.78;;;9.00;89.30;;;;;;4993304;28;20050;-75
2022/04/30 07:21:19;;;;;;;121.03;109.45;;;9.00;89.40;;;;;;4995277;28;20054;-75
2022/04/30 07:23:46;;;;;;;116.35;105.35;;;9.00;89.50;;;;;;4977192;28;20161;-75
2022/04/30 07:26:13;;;;;;;116.97;105.55;;;9.10;89.80;;;;;;4989649;28;20055;-74
2022/04/30 07:28:41;;;;;;;115.80;104.60;;;9.10;89.70;;;;;;4976916;28;20551;-75
2022/04/30 07:31:09;;;;;;;118.25;107.07;;;9.10;89.80;;;;;;4976391;28;20057;-76
2022/04/30 07:33:36;;;;;;;115.82;104.90;;;9.20;89.80;;;;;;4975770;28;20058;-76
2022/04/30 07:36:04;;;;;;;116.75;105.43;;;9.20;89.80;;;;;;4975993;28;20055;-75
2022/04/30 07:38:31;;;;;;;115.43;104.53;;;9.30;89.90;;;;;;4991203;28;20517;-76
2022/04/30 07:40:58;;;;;;;116.40;105.35;;;9.30;89.60;;;;;;4993687;28;20046;-76
2022/04/30 07:43:25;;;;;;;117.22;106.20;;;9.40;89.00;;;;;;4975354;28;20513;-75
2022/04/30 07:45:54;;;;;;;115.65;104.70;;;9.40;88.90;;;;;;4975544;28;20050;-75
2022/04/30 07:48:20;;;;;;;115.18;103.78;;;9.50;89.30;;;;;;4976799;28;20053;-75
2022/04/30 07:50:47;;;;;;;114.70;103.60;;;9.50;89.30;;;;;;4977362;28;20564;-75
2022/04/30 07:53:16;;;;;;;113.43;102.68;;;9.60;89.00;;;;;;4993416;28;20062;-75
2022/04/30 07:55:44;;;;;;;113.85;103.05;;;9.60;88.90;;;;;;4976904;28;20059;-75
2022/04/30 07:58:11;;;;;;;113.88;103.00;;;9.70;89.30;;;;;;4975791;28;20058;-76
2022/04/30 08:01:29;;;;;;;115.13;104.22;;;9.80;89.00;;;;;;4989148;28;20055;-75
2022/04/30 08:03:57;;;;;;;113.90;102.65;;;9.80;88.00;;;;;;4974486;28;20130;-76
2022/04/30 08:06:25;;;;;;;115.15;104.13;;;9.90;88.50;;;;;;4974491;28;20811;-76
2022/04/30 08:08:53;;;;;;;115.47;104.15;;;10.00;88.30;;;;;;4974471;28;20075;-76
2022/04/30 08:11:19;;;;;;;112.45;101.82;;;10.00;87.70;;;;;;4976923;28;20167;-75
2022/04/30 08:13:46;;;;;;;112.82;101.82;;;10.10;87.50;;;;;;4976858;28;20053;-76
2022/04/30 08:16:13;;;;;;;115.13;103.93;;;10.10;87.70;;;;;;4994690;28;20138;-76
2022/04/30 08:18:40;;;;;;;114.03;103.25;;;10.20;87.70;;;;;;4993552;28;20130;-77
2022/04/30 08:21:09;;;;;;;116.47;105.30;;;10.20;87.40;;;;;;4976741;28;20057;-76
2022/04/30 08:23:36;;;;;;;115.07;104.03;;;10.30;86.90;;;;;;4977267;28;20129;-76
2022/04/30 08:26:04;;;;;;;117.07;106.00;;;10.40;86.10;;;;;;4977467;28;20047;-76
2022/04/30 08:28:31;;;;;;;116.72;105.53;;;10.40;85.30;;;;;;4993127;28;20059;-77
2022/04/30 08:30:59;;;;;;;116.45;105.25;;;10.40;84.90;;;;;;4965552;28;20110;-77
2022/04/30 08:33:26;;;;;;;116.38;105.22;;;10.40;84.70;;;;;;4992515;28;20134;-76
2022/04/30 08:35:53;;;;;;;116.60;105.60;;;10.40;84.30;;;;;;4976132;28;20145;-76
2022/04/30 08:38:21;;;;;;;117.63;106.28;;;10.40;84.10;;;;;;4993061;28;20487;-75
2022/04/30 08:40:50;;;;;;;119.18;107.55;;;10.50;84.50;;;;;;4991580;28;20073;-76
2022/04/30 08:43:17;;;;;;;116.55;105.65;;;10.50;84.50;;;;;;4993206;28;20059;-75
2022/04/30 08:45:45;;;;;;;115.90;104.55;;;10.50;83.90;;;;;;4974907;28;20047;-75
2022/04/30 08:48:14;;;;;;;116.57;105.20;;;10.50;83.90;;;;;;4976217;28;20059;-76
2022/04/30 08:50:44;;;;;;;116.68;105.30;;;10.50;83.60;;;;;;4974125;28;20058;-76
2022/04/30 08:53:13;;;;;;;115.00;103.90;;;10.60;83.50;;;;;;4976210;28;20054;-75
2022/04/30 08:55:42;;;;;;;116.53;105.53;;;10.60;83.10;;;;;;4994245;28;20515;-76
2022/04/30 08:58:09;;;;;;;116.35;105.00;;;10.60;83.30;;;;;;4976581;28;20051;-74
2022/04/30 09:00:41;;;;;;;116.38;105.35;;;10.70;83.20;;;;;;4975606;28;20141;-76
2022/04/30 09:03:08;;;;;;;114.50;103.90;;;10.70;83.00;;;;;;4990587;28;20059;-77
2022/04/30 09:05:37;;;;;;;115.03;104.25;;;10.70;82.90;;;;;;4983336;28;20051;-76
2022/04/30 09:08:05;;;;;;;116.50;105.28;;;10.80;83.10;;;;;;4973028;28;20055;-75
2022/04/30 09:10:34;;;;;;;116.72;105.72;;;10.80;82.70;;;;;;4972589;28;20070;-76
2022/04/30 09:13:07;;;;;;;114.97;104.07;;;10.80;82.70;;;;;;4973085;28;20063;-76
2022/04/30 09:15:35;;;;;;;116.55;105.40;;;10.80;83.00;;;;;;4972984;28;20061;-76
2022/04/30 09:18:04;;;;;;;115.82;104.75;;;10.90;83.00;;;;;;4971910;28;20058;-76
2022/04/30 09:20:31;;;;;;;119.72;108.35;;;11.00;82.90;;;;;;4973441;28;20509;-76
2022/04/30 09:22:58;;;;;;;120.40;108.72;;;11.00;82.60;;;;;;4983520;28;20058;-76
2022/04/30 09:25:25;;;;;;;121.13;109.80;;;11.00;82.70;;;;;;4982851;28;20061;-76
2022/04/30 09:27:53;;;;;;;120.97;109.47;;;11.10;82.70;;;;;;4980129;28;20059;-76
2022/04/30 09:30:24;;;;;;;119.32;108.25;;;11.10;83.60;;;;;;4903192;28;20047;-77
2022/04/30 09:33:03;;;;;;;119.90;108.53;;;11.30;84.20;;;;;;4965115;28;20055;-76
2022/04/30 09:38:38;;;;;;;117.10;106.18;;;11.50;83.80;;;;;;4916536;29;20056;-76
2022/04/30 09:41:08;;;;;;;115.45;104.70;;;11.60;83.40;;;;;;4914276;29;20052;-77
2022/04/30 09:43:36;;;;;;;117.35;106.22;;;11.60;83.00;;;;;;4926957;28;20684;-77
2022/04/30 09:46:06;;;;;;;118.15;107.07;;;11.70;82.70;;;;;;4966885;28;20138;-76
2022/04/30 09:54:02;;;;;;;117.40;106.63;;;11.90;82.30;;;;;;4971846;28;20126;-75
2022/04/30 09:56:36;;;;;;;117.45;106.63;;;12.00;81.90;;;;;;4955655;28;20081;-75
2022/04/30 09:59:05;;;;;;;118.85;107.93;;;12.10;81.20;;;;;;4971447;28;20051;-75
2022/04/30 10:01:35;;;;;;;118.93;107.80;;;12.10;80.50;;;;;;4957197;28;20044;-75
2022/04/30 10:04:08;;;;;;;115.93;105.32;;;12.20;79.70;;;;;;4976324;28;20648;-74
2022/04/30 10:06:36;;;;;;;117.53;106.72;;;12.30;78.90;;;;;;4992679;28;20425;-75
2022/04/30 10:09:08;;;;;;;119.20;105.85;;;12.40;78.40;;;;;;4990982;28;20048;-75
2022/04/30 10:11:42;;;;;;;115.47;104.45;;;12.40;77.60;;;;;;4975792;28;20102;-77
2022/04/30 10:14:30;;;;;;;113.78;103.57;;;12.40;77.40;;;;;;4976995;28;20066;-75
2022/04/30 10:17:16;;;;;;;115.80;105.20;;;12.50;76.50;;;;;;4976516;28;20071;-75
2022/04/30 10:19:45;;;;;;;115.75;105.13;;;12.60;75.70;;;;;;4975627;28;20058;-75
2022/04/30 10:22:14;;;;;;;116.50;105.72;;;12.60;74.10;;;;;;4959195;28;20224;-75
2022/04/30 10:24:46;;;;;;;116.47;105.88;;;12.60;73.30;;;;;;4975804;28;20055;-75
2022/04/30 10:27:14;;;;;;;118.60;107.97;;;12.60;73.20;;;;;;4973082;28;20043;-75
2022/04/30 10:29:53;;;;;;;115.03;104.50;;;12.60;72.40;;;;;;4974673;28;20062;-75
2022/04/30 10:32:32;;;;;;;116.10;105.45;;;12.60;71.90;;;;;;4973103;28;20082;-75
2022/04/30 10:35:00;;;;;;;113.70;103.28;;;12.60;71.70;;;;;;4983360;28;20058;-76
2022/04/30 10:37:28;;;;;;;115.15;104.70;;;12.60;71.30;;;;;;4960159;28;20051;-75
2022/04/30 10:40:00;;;;;;;113.25;102.70;;;12.60;71.50;;;;;;4958690;28;20055;-75
2022/04/30 10:42:31;;;;;;;114.00;103.18;;;12.60;71.30;;;;;;4974624;28;20062;-75
2022/04/30 10:44:59;;;;;;;115.22;104.60;;;12.60;71.20;;;;;;4958685;28;20051;-75
2022/04/30 10:47:26;;;;;;;115.93;105.63;;;12.60;70.80;;;;;;4974355;28;20047;-75
2022/04/30 10:49:55;;;;;;;115.90;105.30;;;12.70;70.70;;;;;;4974718;28;20098;-75
2022/04/30 10:52:24;;;;;;;115.20;104.70;;;12.70;70.80;;;;;;4976093;28;20138;-76
2022/04/30 10:54:54;;;;;;;113.70;103.30;;;12.70;70.80;;;;;;4959073;28;20082;-76
2022/04/30 10:57:21;;;;;;;116.40;105.57;;;12.80;70.40;;;;;;4958907;28;20059;-76
2022/04/30 11:00:01;;;;;;;116.30;106.00;;;12.70;70.00;;;;;;4958826;28;20059;-76
2022/04/30 11:02:32;;;;;;;115.93;105.43;;;12.70;69.90;;;;;;4975276;28;20055;-76
2022/04/30 11:05:01;;;;;;;113.75;103.43;;;12.70;69.90;;;;;;4969434;28;20509;-75
2022/04/30 11:07:30;;;;;;;115.05;103.30;;;12.70;69.90;;;;;;4971651;28;20130;-75
2022/04/30 11:09:57;;;;;;;113.35;103.18;;;12.70;70.00;;;;;;4973966;28;20055;-75
2022/04/30 11:12:30;;;;;;;111.93;101.57;;;12.70;69.50;;;;;;4959756;28;20055;-75
2022/04/30 11:14:58;;;;;;;116.60;106.28;;;12.70;69.30;;;;;;4973434;28;20051;-76
2022/04/30 11:17:25;;;;;;;112.90;102.82;;;12.70;69.20;;;;;;4957480;28;20560;-75
2022/04/30 11:19:55;;;;;;;114.43;104.13;;;12.70;69.10;;;;;;4965477;28;20055;-75
2022/04/30 11:22:24;;;;;;;112.95;102.95;;;12.70;68.90;;;;;;4973475;28;20048;-75
2022/04/30 11:24:56;;;;;;;115.30;104.70;;;12.70;68.60;;;;;;4957983;28;20228;-75
2022/04/30 11:27:23;;;;;;;114.28;104.05;;;12.70;68.30;;;;;;4974020;28;20182;-76
2022/04/30 11:29:51;;;;;;;115.78;105.40;;;12.70;68.00;;;;;;4957647;28;20130;-75
2022/04/30 11:32:22;;;;;;;113.47;103.03;;;12.70;68.00;;;;;;4968796;28;20047;-76
2022/04/30 11:34:49;;;;;;;113.68;103.38;;;12.60;68.20;;;;;;4967527;28;20067;-76
2022/04/30 11:37:15;;;;;;;115.35;104.75;;;12.60;68.20;;;;;;4961784;28;20940;-76
2022/04/30 11:39:44;;;;;;;113.80;103.57;;;12.60;68.20;;;;;;4974552;28;20103;-76
2022/04/30 11:42:11;;;;;;;113.82;103.53;;;12.60;67.80;;;;;;4971303;28;20139;-76
2022/04/30 11:44:38;;;;;;;114.32;103.88;;;12.60;67.90;;;;;;4971463;28;20059;-77
2022/04/30 11:47:08;;;;;;;115.18;104.57;;;12.60;68.20;;;;;;4972114;28;20142;-77
2022/04/30 11:49:36;;;;;;;113.25;103.35;;;12.60;68.20;;;;;;4974861;28;20047;-77
2022/04/30 11:52:04;;;;;;;113.15;102.97;;;12.60;68.50;;;;;;4974550;28;20592;-77
2022/04/30 11:54:31;;;;;;;115.78;105.32;;;12.60;68.60;;;;;;4966297;28;20138;-77
2022/04/30 11:57:02;;;;;;;115.68;105.15;;;12.70;68.50;;;;;;4963163;28;20057;-78
2022/04/30 11:59:30;;;;;;;116.88;106.57;;;12.70;68.30;;;;;;4951469;28;20058;-76
2022/04/30 12:02:01;;;;;;;115.95;105.57;;;12.70;68.20;;;;;;4956103;28;20514;-76
2022/04/30 12:04:32;;;;;;;115.55;105.05;;;12.70;67.60;;;;;;4955717;28;20051;-79
2022/04/30 12:07:00;;;;;;;115.75;105.50;;;12.70;67.50;;;;;;4954352;28;20135;-77
2022/04/30 12:09:30;;;;;;;115.88;105.53;;;12.70;67.80;;;;;;4954271;28;20061;-77
2022/04/30 12:12:00;;;;;;;116.18;105.53;;;12.70;67.80;;;;;;4954503;28;20067;-77
2022/04/30 12:14:28;;;;;;;113.90;103.75;;;12.70;68.20;;;;;;4956952;28;20123;-77
2022/04/30 12:16:57;;;;;;;116.80;106.40;;;12.60;68.30;;;;;;4956285;28;20060;-77
2022/04/30 12:25:00;;;;;;;116.85;106.25;;;12.70;68.20;;;;;;4936107;28;20063;-76
2022/04/30 12:27:29;;;;;;;116.15;105.85;;;12.60;68.40;;;;;;4954104;28;20598;-78
2022/04/30 12:30:09;;;;;;;116.53;106.00;;;12.70;68.50;;;;;;4954898;28;20047;-77
2022/04/30 12:32:47;;;;;;;116.22;105.82;;;12.70;68.50;;;;;;4966541;28;21171;-76
2022/04/30 12:35:15;;;;;;;117.63;107.13;;;12.70;68.60;;;;;;4960203;28;20059;-78
2022/04/30 12:37:42;;;;;;;115.32;105.15;;;12.70;68.80;;;;;;4973172;28;20059;-80
2022/04/30 12:40:10;;;;;;;116.57;105.85;;;12.70;68.90;;;;;;4973924;28;20055;-78
2022/04/30 12:42:39;;;;;;;115.18;104.88;;;12.70;68.90;;;;;;4956542;28;20059;-78
2022/04/30 12:45:07;;;;;;;114.60;104.53;;;12.70;69.00;;;;;;4973533;28;20130;-77
2022/04/30 12:47:34;;;;;;;115.30;105.15;;;12.70;69.00;;;;;;4956789;28;20039;-78
2022/04/30 12:50:01;;;;;;;115.00;104.50;;;12.70;69.00;;;;;;4973524;28;20051;-80
2022/04/30 12:52:28;;;;;;;115.72;105.45;;;12.80;69.20;;;;;;4957682;28;20058;-78
2022/04/30 12:54:56;;;;;;;116.43;106.22;;;12.80;69.10;;;;;;4955423;28;20129;-78
2022/04/30 12:57:23;;;;;;;118.28;107.95;;;12.80;68.80;;;;;;4955487;28;20489;-75